sensor_id;sensor_type;location;lat;lon;timestamp;P1;durP1;ratioP1;P2;durP2;ratioP2
22152;SDS011;11242;50.536;12.688;2022-08-11T00:01:07;10.57;;;9.48;;
22152;SDS011;11242;50.536;12.688;2022-08-11T00:03:46;11.20;;;9.20;;
22152;SDS011;11242;50.536;12.688;2022-08-11T00:06:15;10.13;;;9.23;;
22152;SDS011;11242;50.536;12.688;2022-08-11T00:08:53;10.90;;;9.93;;
22152;SDS011;11242;50.536;12.688;2022-08-11T00:11:20;10.85;;;9.80;;
22152;SDS011;11242;50.536;12.688;2022-08-11T00:13:50;11.45;;;10.18;;
22152;SDS011;11242;50.536;12.688;2022-08-11T00:16:20;10.73;;;9.68;;
22152;SDS011;11242;50.536;12.688;2022-08-11T00:18:50;11.43;;;10.15;;
22152;SDS011;11242;50.536;12.688;2022-08-11T00:21:17;12.48;;;10.70;;
22152;SDS011;11242;50.536;12.688;2022-08-11T00:23:46;12.90;;;10.02;;
22152;SDS011;11242;50.536;12.688;2022-08-11T00:26:18;12.00;;;10.48;;
22152;SDS011;11242;50.536;12.688;2022-08-11T00:28:45;11.40;;;9.27;;
22152;SDS011;11242;50.536;12.688;2022-08-11T00:31:19;10.75;;;9.68;;
22152;SDS011;11242;50.536;12.688;2022-08-11T00:33:48;11.00;;;10.00;;
22152;SDS011;11242;50.536;12.688;2022-08-11T00:36:15;10.57;;;9.57;;
22152;SDS011;11242;50.536;12.688;2022-08-11T00:38:44;12.57;;;10.55;;
22152;SDS011;11242;50.536;12.688;2022-08-11T00:41:19;11.80;;;10.27;;
22152;SDS011;11242;50.536;12.688;2022-08-11T00:55:25;11.75;;;10.65;;
22152;SDS011;11242;50.536;12.688;2022-08-11T01:12:48;12.05;;;10.85;;
22152;SDS011;11242;50.536;12.688;2022-08-11T01:15:57;11.90;;;10.90;;
22152;SDS011;11242;50.536;12.688;2022-08-11T01:21:11;12.30;;;11.15;;
22152;SDS011;11242;50.536;12.688;2022-08-11T01:27:20;12.70;;;11.50;;
22152;SDS011;11242;50.536;12.688;2022-08-11T01:44:44;12.70;;;11.27;;
22152;SDS011;11242;50.536;12.688;2022-08-11T01:47:53;12.55;;;11.32;;
22152;SDS011;11242;50.536;12.688;2022-08-11T01:50:39;13.65;;;12.23;;
22152;SDS011;11242;50.536;12.688;2022-08-11T01:53:27;12.55;;;11.35;;
22152;SDS011;11242;50.536;12.688;2022-08-11T01:58:57;13.63;;;11.13;;
22152;SDS011;11242;50.536;12.688;2022-08-11T02:16:13;12.95;;;11.65;;
22152;SDS011;11242;50.536;12.688;2022-08-11T02:19:04;13.85;;;12.50;;
22152;SDS011;11242;50.536;12.688;2022-08-11T02:22:02;13.48;;;12.13;;
22152;SDS011;11242;50.536;12.688;2022-08-11T02:25:05;14.68;;;11.85;;
22152;SDS011;11242;50.536;12.688;2022-08-11T02:27:47;13.52;;;11.18;;
22152;SDS011;11242;50.536;12.688;2022-08-11T02:30:21;12.88;;;10.77;;
22152;SDS011;11242;50.536;12.688;2022-08-11T02:35:54;10.85;;;8.77;;
22152;SDS011;11242;50.536;12.688;2022-08-11T02:38:50;7.90;;;7.10;;
22152;SDS011;11242;50.536;12.688;2022-08-11T02:41:35;7.78;;;6.93;;
22152;SDS011;11242;50.536;12.688;2022-08-11T02:44:50;7.43;;;6.72;;
22152;SDS011;11242;50.536;12.688;2022-08-11T02:50:46;6.88;;;6.22;;
22152;SDS011;11242;50.536;12.688;2022-08-11T02:56:18;7.40;;;6.07;;
22152;SDS011;11242;50.536;12.688;2022-08-11T03:10:28;12.75;;;10.98;;
22152;SDS011;11242;50.536;12.688;2022-08-11T03:16:20;12.90;;;10.75;;
22152;SDS011;11242;50.536;12.688;2022-08-11T03:19:25;12.45;;;11.35;;
22152;SDS011;11242;50.536;12.688;2022-08-11T03:22:16;14.50;;;11.60;;
22152;SDS011;11242;50.536;12.688;2022-08-11T03:24:55;14.52;;;11.80;;
22152;SDS011;11242;50.536;12.688;2022-08-11T03:27:32;13.70;;;12.25;;
22152;SDS011;11242;50.536;12.688;2022-08-11T03:30:12;13.63;;;12.40;;
22152;SDS011;11242;50.536;12.688;2022-08-11T03:36:37;13.80;;;12.38;;
22152;SDS011;11242;50.536;12.688;2022-08-11T03:42:10;14.35;;;12.82;;
22152;SDS011;11242;50.536;12.688;2022-08-11T03:44:47;14.88;;;13.40;;
22152;SDS011;11242;50.536;12.688;2022-08-11T03:50:21;13.60;;;12.07;;
22152;SDS011;11242;50.536;12.688;2022-08-11T03:53:17;16.58;;;12.90;;
22152;SDS011;11242;50.536;12.688;2022-08-11T03:59:23;14.25;;;12.85;;
22152;SDS011;11242;50.536;12.688;2022-08-11T04:02:07;14.85;;;13.20;;
22152;SDS011;11242;50.536;12.688;2022-08-11T04:05:07;13.32;;;12.10;;
22152;SDS011;11242;50.536;12.688;2022-08-11T04:22:07;21.17;;;12.68;;
22152;SDS011;11242;50.536;12.688;2022-08-11T04:27:33;14.00;;;12.07;;
22152;SDS011;11242;50.536;12.688;2022-08-11T04:30:27;13.13;;;11.82;;
22152;SDS011;11242;50.536;12.688;2022-08-11T04:33:28;14.60;;;11.93;;
22152;SDS011;11242;50.536;12.688;2022-08-11T04:47:53;10.32;;;9.32;;
22152;SDS011;11242;50.536;12.688;2022-08-11T04:53:41;11.90;;;10.70;;
22152;SDS011;11242;50.536;12.688;2022-08-11T04:56:33;15.98;;;10.95;;
22152;SDS011;11242;50.536;12.688;2022-08-11T04:59:28;11.85;;;10.63;;
22152;SDS011;11242;50.536;12.688;2022-08-11T05:05:28;12.63;;;10.88;;
22152;SDS011;11242;50.536;12.688;2022-08-11T05:14:05;10.05;;;9.15;;
22152;SDS011;11242;50.536;12.688;2022-08-11T05:17:14;14.15;;;8.75;;
22152;SDS011;11242;50.536;12.688;2022-08-11T05:20:07;9.13;;;7.40;;
22152;SDS011;11242;50.536;12.688;2022-08-11T05:22:53;7.90;;;6.60;;
22152;SDS011;11242;50.536;12.688;2022-08-11T05:25:38;7.22;;;6.25;;
22152;SDS011;11242;50.536;12.688;2022-08-11T05:28:34;7.45;;;6.00;;
22152;SDS011;11242;50.536;12.688;2022-08-11T05:31:31;5.93;;;5.35;;
22152;SDS011;11242;50.536;12.688;2022-08-11T05:34:22;6.03;;;5.43;;
22152;SDS011;11242;50.536;12.688;2022-08-11T05:37:11;5.93;;;4.97;;
22152;SDS011;11242;50.536;12.688;2022-08-11T05:42:31;7.40;;;4.90;;
22152;SDS011;11242;50.536;12.688;2022-08-11T05:45:18;5.03;;;4.50;;
22152;SDS011;11242;50.536;12.688;2022-08-11T05:48:03;7.43;;;4.53;;
22152;SDS011;11242;50.536;12.688;2022-08-11T05:50:57;6.60;;;4.38;;
22152;SDS011;11242;50.536;12.688;2022-08-11T05:54:02;4.70;;;4.10;;
22152;SDS011;11242;50.536;12.688;2022-08-11T05:56:50;4.28;;;3.88;;
22152;SDS011;11242;50.536;12.688;2022-08-11T05:59:20;5.97;;;3.97;;
22152;SDS011;11242;50.536;12.688;2022-08-11T06:01:47;7.30;;;4.13;;
22152;SDS011;11242;50.536;12.688;2022-08-11T06:04:15;4.43;;;4.00;;
22152;SDS011;11242;50.536;12.688;2022-08-11T06:06:52;4.32;;;3.95;;
22152;SDS011;11242;50.536;12.688;2022-08-11T06:09:30;4.63;;;3.70;;
22152;SDS011;11242;50.536;12.688;2022-08-11T06:12:04;4.97;;;3.70;;
22152;SDS011;11242;50.536;12.688;2022-08-11T06:14:40;3.50;;;3.10;;
22152;SDS011;11242;50.536;12.688;2022-08-11T06:17:07;5.82;;;4.03;;
22152;SDS011;11242;50.536;12.688;2022-08-11T06:19:40;5.85;;;3.40;;
22152;SDS011;11242;50.536;12.688;2022-08-11T06:22:10;4.22;;;3.85;;
22152;SDS011;11242;50.536;12.688;2022-08-11T06:24:38;4.32;;;3.70;;
22152;SDS011;11242;50.536;12.688;2022-08-11T06:27:05;5.28;;;4.60;;
22152;SDS011;11242;50.536;12.688;2022-08-11T06:29:35;4.70;;;4.25;;
22152;SDS011;11242;50.536;12.688;2022-08-11T06:32:05;4.00;;;3.55;;
22152;SDS011;11242;50.536;12.688;2022-08-11T06:40:12;5.53;;;3.63;;
22152;SDS011;11242;50.536;12.688;2022-08-11T06:43:14;4.45;;;2.95;;
22152;SDS011;11242;50.536;12.688;2022-08-11T06:45:47;3.70;;;3.40;;
22152;SDS011;11242;50.536;12.688;2022-08-11T06:48:29;3.45;;;3.15;;
22152;SDS011;11242;50.536;12.688;2022-08-11T06:50:58;4.50;;;3.20;;
22152;SDS011;11242;50.536;12.688;2022-08-11T06:56:36;3.65;;;3.30;;
22152;SDS011;11242;50.536;12.688;2022-08-11T06:59:35;7.10;;;3.00;;
22152;SDS011;11242;50.536;12.688;2022-08-11T07:02:25;3.40;;;2.42;;
22152;SDS011;11242;50.536;12.688;2022-08-11T07:05:02;3.30;;;2.42;;
22152;SDS011;11242;50.536;12.688;2022-08-11T07:16:53;2.33;;;2.13;;
22152;SDS011;11242;50.536;12.688;2022-08-11T07:19:24;2.67;;;1.73;;
22152;SDS011;11242;50.536;12.688;2022-08-11T07:22:11;2.30;;;2.00;;
22152;SDS011;11242;50.536;12.688;2022-08-11T07:24:57;3.65;;;2.00;;
22152;SDS011;11242;50.536;12.688;2022-08-11T07:27:45;5.03;;;1.90;;
22152;SDS011;11242;50.536;12.688;2022-08-11T07:30:36;2.45;;;1.98;;
22152;SDS011;11242;50.536;12.688;2022-08-11T07:33:05;2.85;;;2.25;;
22152;SDS011;11242;50.536;12.688;2022-08-11T07:35:42;7.05;;;2.70;;
22152;SDS011;11242;50.536;12.688;2022-08-11T07:38:17;2.55;;;2.20;;
22152;SDS011;11242;50.536;12.688;2022-08-11T07:41:08;6.17;;;2.30;;
22152;SDS011;11242;50.536;12.688;2022-08-11T07:43:35;6.18;;;2.45;;
22152;SDS011;11242;50.536;12.688;2022-08-11T07:46:02;7.70;;;2.53;;
22152;SDS011;11242;50.536;12.688;2022-08-11T07:48:47;4.05;;;2.47;;
22152;SDS011;11242;50.536;12.688;2022-08-11T07:51:32;3.45;;;2.70;;
22152;SDS011;11242;50.536;12.688;2022-08-11T07:54:16;4.53;;;2.40;;
22152;SDS011;11242;50.536;12.688;2022-08-11T07:56:43;15.57;;;3.05;;
22152;SDS011;11242;50.536;12.688;2022-08-11T07:59:09;4.45;;;2.45;;
22152;SDS011;11242;50.536;12.688;2022-08-11T08:01:54;7.72;;;3.00;;
22152;SDS011;11242;50.536;12.688;2022-08-11T08:04:39;7.13;;;2.63;;
22152;SDS011;11242;50.536;12.688;2022-08-11T08:07:24;4.15;;;2.50;;
22152;SDS011;11242;50.536;12.688;2022-08-11T08:10:08;3.30;;;2.55;;
22152;SDS011;11242;50.536;12.688;2022-08-11T08:12:53;4.65;;;3.05;;
22152;SDS011;11242;50.536;12.688;2022-08-11T08:15:38;4.22;;;2.80;;
22152;SDS011;11242;50.536;12.688;2022-08-11T08:18:24;2.65;;;2.35;;
22152;SDS011;11242;50.536;12.688;2022-08-11T08:20:50;7.47;;;2.65;;
22152;SDS011;11242;50.536;12.688;2022-08-11T08:23:19;3.78;;;3.08;;
22152;SDS011;11242;50.536;12.688;2022-08-11T08:25:59;9.15;;;2.90;;
22152;SDS011;11242;50.536;12.688;2022-08-11T08:28:29;10.03;;;3.10;;
22152;SDS011;11242;50.536;12.688;2022-08-11T08:30:56;12.60;;;3.25;;
22152;SDS011;11242;50.536;12.688;2022-08-11T08:33:23;6.15;;;3.03;;
22152;SDS011;11242;50.536;12.688;2022-08-11T08:35:51;3.15;;;2.83;;
22152;SDS011;11242;50.536;12.688;2022-08-11T08:38:45;5.35;;;2.80;;
22152;SDS011;11242;50.536;12.688;2022-08-11T08:41:13;4.35;;;2.75;;
22152;SDS011;11242;50.536;12.688;2022-08-11T08:43:45;6.80;;;3.13;;
22152;SDS011;11242;50.536;12.688;2022-08-11T08:46:15;6.13;;;2.95;;
22152;SDS011;11242;50.536;12.688;2022-08-11T08:48:46;4.72;;;2.70;;
22152;SDS011;11242;50.536;12.688;2022-08-11T08:51:13;4.75;;;3.13;;
22152;SDS011;11242;50.536;12.688;2022-08-11T08:54:02;5.38;;;2.95;;
22152;SDS011;11242;50.536;12.688;2022-08-11T08:56:30;3.00;;;2.80;;
22152;SDS011;11242;50.536;12.688;2022-08-11T08:58:58;3.17;;;2.88;;
22152;SDS011;11242;50.536;12.688;2022-08-11T09:01:30;4.03;;;3.08;;
22152;SDS011;11242;50.536;12.688;2022-08-11T09:04:02;6.93;;;3.03;;
22152;SDS011;11242;50.536;12.688;2022-08-11T09:06:33;5.55;;;2.67;;
22152;SDS011;11242;50.536;12.688;2022-08-11T09:09:03;3.38;;;2.97;;
22152;SDS011;11242;50.536;12.688;2022-08-11T09:11:32;3.20;;;2.63;;
22152;SDS011;11242;50.536;12.688;2022-08-11T09:14:17;4.35;;;2.50;;
22152;SDS011;11242;50.536;12.688;2022-08-11T09:16:44;4.05;;;2.60;;
22152;SDS011;11242;50.536;12.688;2022-08-11T09:19:14;3.25;;;2.63;;
22152;SDS011;11242;50.536;12.688;2022-08-11T09:21:48;4.35;;;2.33;;
22152;SDS011;11242;50.536;12.688;2022-08-11T09:24:33;3.58;;;2.70;;
22152;SDS011;11242;50.536;12.688;2022-08-11T09:27:19;7.80;;;3.15;;
22152;SDS011;11242;50.536;12.688;2022-08-11T09:29:46;5.55;;;2.65;;
22152;SDS011;11242;50.536;12.688;2022-08-11T09:32:12;2.92;;;2.60;;
22152;SDS011;11242;50.536;12.688;2022-08-11T09:34:39;4.32;;;2.80;;
22152;SDS011;11242;50.536;12.688;2022-08-11T09:37:04;5.30;;;2.55;;
22152;SDS011;11242;50.536;12.688;2022-08-11T09:39:51;3.33;;;2.78;;
22152;SDS011;11242;50.536;12.688;2022-08-11T09:42:36;4.85;;;2.70;;
22152;SDS011;11242;50.536;12.688;2022-08-11T09:45:21;5.07;;;2.80;;
22152;SDS011;11242;50.536;12.688;2022-08-11T09:47:47;5.95;;;3.00;;
22152;SDS011;11242;50.536;12.688;2022-08-11T09:50:13;4.93;;;2.92;;
22152;SDS011;11242;50.536;12.688;2022-08-11T09:52:41;4.65;;;2.85;;
22152;SDS011;11242;50.536;12.688;2022-08-11T09:55:09;5.22;;;2.78;;
22152;SDS011;11242;50.536;12.688;2022-08-11T09:57:44;4.68;;;3.17;;
22152;SDS011;11242;50.536;12.688;2022-08-11T10:00:31;4.85;;;3.10;;
22152;SDS011;11242;50.536;12.688;2022-08-11T10:03:01;4.55;;;2.72;;
22152;SDS011;11242;50.536;12.688;2022-08-11T10:05:31;5.05;;;3.05;;
22152;SDS011;11242;50.536;12.688;2022-08-11T10:08:16;3.63;;;3.00;;
22152;SDS011;11242;50.536;12.688;2022-08-11T10:10:43;6.78;;;3.10;;
22152;SDS011;11242;50.536;12.688;2022-08-11T10:13:13;7.20;;;2.80;;
22152;SDS011;11242;50.536;12.688;2022-08-11T10:15:42;6.43;;;2.72;;
22152;SDS011;11242;50.536;12.688;2022-08-11T10:18:14;5.25;;;3.08;;
22152;SDS011;11242;50.536;12.688;2022-08-11T10:21:02;4.68;;;3.13;;
22152;SDS011;11242;50.536;12.688;2022-08-11T10:23:34;5.05;;;2.65;;
22152;SDS011;11242;50.536;12.688;2022-08-11T10:26:20;3.72;;;2.65;;
22152;SDS011;11242;50.536;12.688;2022-08-11T10:29:06;3.20;;;2.88;;
22152;SDS011;11242;50.536;12.688;2022-08-11T10:31:54;4.22;;;2.83;;
22152;SDS011;11242;50.536;12.688;2022-08-11T10:34:39;6.63;;;2.88;;
22152;SDS011;11242;50.536;12.688;2022-08-11T10:37:07;4.10;;;2.67;;
22152;SDS011;11242;50.536;12.688;2022-08-11T10:39:33;4.55;;;2.92;;
22152;SDS011;11242;50.536;12.688;2022-08-11T10:42:01;4.80;;;2.47;;
22152;SDS011;11242;50.536;12.688;2022-08-11T10:44:47;3.33;;;2.53;;
22152;SDS011;11242;50.536;12.688;2022-08-11T10:47:16;3.15;;;2.83;;
22152;SDS011;11242;50.536;12.688;2022-08-11T10:50:09;2.90;;;2.60;;
22152;SDS011;11242;50.536;12.688;2022-08-11T10:52:55;3.13;;;2.80;;
22152;SDS011;11242;50.536;12.688;2022-08-11T10:55:42;4.07;;;2.83;;
22152;SDS011;11242;50.536;12.688;2022-08-11T10:58:28;3.28;;;2.47;;
22152;SDS011;11242;50.536;12.688;2022-08-11T11:03:50;3.13;;;2.75;;
22152;SDS011;11242;50.536;12.688;2022-08-11T11:11:44;7.30;;;2.88;;
22152;SDS011;11242;50.536;12.688;2022-08-11T11:14:52;4.85;;;2.60;;
22152;SDS011;11242;50.536;12.688;2022-08-11T11:17:40;5.85;;;3.00;;
22152;SDS011;11242;50.536;12.688;2022-08-11T11:23:12;6.07;;;2.80;;
22152;SDS011;11242;50.536;12.688;2022-08-11T11:28:45;3.50;;;2.72;;
22152;SDS011;11242;50.536;12.688;2022-08-11T11:31:44;3.17;;;2.88;;
22152;SDS011;11242;50.536;12.688;2022-08-11T11:37:33;3.25;;;2.60;;
22152;SDS011;11242;50.536;12.688;2022-08-11T11:40:00;6.78;;;2.95;;
22152;SDS011;11242;50.536;12.688;2022-08-11T11:42:39;5.47;;;2.80;;
22152;SDS011;11242;50.536;12.688;2022-08-11T11:45:07;6.93;;;2.63;;
22152;SDS011;11242;50.536;12.688;2022-08-11T11:47:35;4.20;;;2.97;;
22152;SDS011;11242;50.536;12.688;2022-08-11T11:50:02;2.95;;;2.67;;
22152;SDS011;11242;50.536;12.688;2022-08-11T11:52:29;5.90;;;2.55;;
22152;SDS011;11242;50.536;12.688;2022-08-11T11:54:56;4.53;;;2.65;;
22152;SDS011;11242;50.536;12.688;2022-08-11T11:57:24;3.83;;;2.50;;
22152;SDS011;11242;50.536;12.688;2022-08-11T12:00:10;3.88;;;2.70;;
22152;SDS011;11242;50.536;12.688;2022-08-11T12:02:55;7.72;;;4.00;;
22152;SDS011;11242;50.536;12.688;2022-08-11T12:05:24;3.05;;;2.70;;
22152;SDS011;11242;50.536;12.688;2022-08-11T12:07:50;2.90;;;2.70;;
22152;SDS011;11242;50.536;12.688;2022-08-11T12:10:35;3.72;;;2.80;;
22152;SDS011;11242;50.536;12.688;2022-08-11T12:13:02;2.80;;;2.60;;
22152;SDS011;11242;50.536;12.688;2022-08-11T12:15:47;5.05;;;2.90;;
22152;SDS011;11242;50.536;12.688;2022-08-11T12:18:14;5.57;;;2.55;;
22152;SDS011;11242;50.536;12.688;2022-08-11T12:20:41;4.40;;;2.40;;
22152;SDS011;11242;50.536;12.688;2022-08-11T12:23:08;5.75;;;2.53;;
22152;SDS011;11242;50.536;12.688;2022-08-11T12:25:53;2.60;;;2.40;;
22152;SDS011;11242;50.536;12.688;2022-08-11T12:28:38;4.95;;;2.35;;
22152;SDS011;11242;50.536;12.688;2022-08-11T12:31:04;4.82;;;2.40;;
22152;SDS011;11242;50.536;12.688;2022-08-11T12:33:33;6.80;;;2.80;;
22152;SDS011;11242;50.536;12.688;2022-08-11T12:36:00;4.28;;;2.45;;
22152;SDS011;11242;50.536;12.688;2022-08-11T12:38:26;2.90;;;2.42;;
22152;SDS011;11242;50.536;12.688;2022-08-11T12:40:52;5.07;;;2.72;;
22152;SDS011;11242;50.536;12.688;2022-08-11T12:43:37;2.80;;;2.60;;
22152;SDS011;11242;50.536;12.688;2022-08-11T12:46:29;3.17;;;2.53;;
22152;SDS011;11242;50.536;12.688;2022-08-11T12:48:58;2.58;;;2.38;;
22152;SDS011;11242;50.536;12.688;2022-08-11T12:51:51;4.28;;;2.50;;
22152;SDS011;11242;50.536;12.688;2022-08-11T12:54:30;4.70;;;2.60;;
22152;SDS011;11242;50.536;12.688;2022-08-11T12:57:11;2.67;;;2.47;;
22152;SDS011;11242;50.536;12.688;2022-08-11T12:59:58;3.55;;;2.13;;
22152;SDS011;11242;50.536;12.688;2022-08-11T13:02:43;4.43;;;2.22;;
22152;SDS011;11242;50.536;12.688;2022-08-11T13:05:29;6.13;;;2.70;;
22152;SDS011;11242;50.536;12.688;2022-08-11T13:07:57;4.05;;;2.70;;
22152;SDS011;11242;50.536;12.688;2022-08-11T13:10:25;6.07;;;2.40;;
22152;SDS011;11242;50.536;12.688;2022-08-11T13:13:12;4.65;;;2.45;;
22152;SDS011;11242;50.536;12.688;2022-08-11T13:15:39;3.25;;;2.70;;
22152;SDS011;11242;50.536;12.688;2022-08-11T13:18:06;3.20;;;2.70;;
22152;SDS011;11242;50.536;12.688;2022-08-11T13:20:32;4.85;;;2.30;;
22152;SDS011;11242;50.536;12.688;2022-08-11T13:22:58;2.95;;;2.45;;
22152;SDS011;11242;50.536;12.688;2022-08-11T13:25:25;4.22;;;2.63;;
22152;SDS011;11242;50.536;12.688;2022-08-11T13:27:55;5.70;;;3.22;;
22152;SDS011;11242;50.536;12.688;2022-08-11T13:30:27;3.20;;;2.50;;
22152;SDS011;11242;50.536;12.688;2022-08-11T13:33:13;3.58;;;2.42;;
22152;SDS011;11242;50.536;12.688;2022-08-11T13:35:46;4.60;;;2.30;;
22152;SDS011;11242;50.536;12.688;2022-08-11T13:38:15;6.07;;;2.40;;
22152;SDS011;11242;50.536;12.688;2022-08-11T13:40:43;4.35;;;2.65;;
22152;SDS011;11242;50.536;12.688;2022-08-11T13:43:09;2.70;;;2.50;;
22152;SDS011;11242;50.536;12.688;2022-08-11T13:45:37;2.38;;;2.28;;
22152;SDS011;11242;50.536;12.688;2022-08-11T13:48:05;4.32;;;2.47;;
22152;SDS011;11242;50.536;12.688;2022-08-11T13:50:32;4.40;;;2.50;;
22152;SDS011;11242;50.536;12.688;2022-08-11T13:53:20;4.45;;;2.10;;
22152;SDS011;11242;50.536;12.688;2022-08-11T13:55:47;4.85;;;2.67;;
22152;SDS011;11242;50.536;12.688;2022-08-11T13:58:13;4.53;;;2.25;;
22152;SDS011;11242;50.536;12.688;2022-08-11T14:00:40;5.45;;;2.40;;
22152;SDS011;11242;50.536;12.688;2022-08-11T14:03:12;2.88;;;2.38;;
22152;SDS011;11242;50.536;12.688;2022-08-11T14:05:39;3.95;;;2.30;;
22152;SDS011;11242;50.536;12.688;2022-08-11T14:08:09;3.15;;;2.08;;
22152;SDS011;11242;50.536;12.688;2022-08-11T14:10:38;2.30;;;2.20;;
22152;SDS011;11242;50.536;12.688;2022-08-11T14:13:15;6.20;;;2.70;;
22152;SDS011;11242;50.536;12.688;2022-08-11T14:16:02;4.25;;;2.28;;
22152;SDS011;11242;50.536;12.688;2022-08-11T14:18:31;3.60;;;2.28;;
22152;SDS011;11242;50.536;12.688;2022-08-11T14:20:58;3.60;;;2.45;;
22152;SDS011;11242;50.536;12.688;2022-08-11T14:23:46;5.43;;;2.40;;
22152;SDS011;11242;50.536;12.688;2022-08-11T14:26:15;4.70;;;2.22;;
22152;SDS011;11242;50.536;12.688;2022-08-11T14:28:48;3.65;;;2.10;;
22152;SDS011;11242;50.536;12.688;2022-08-11T14:31:17;3.88;;;2.42;;
22152;SDS011;11242;50.536;12.688;2022-08-11T14:33:43;3.00;;;2.42;;
22152;SDS011;11242;50.536;12.688;2022-08-11T14:36:09;4.75;;;2.30;;
22152;SDS011;11242;50.536;12.688;2022-08-11T14:38:35;6.88;;;2.58;;
22152;SDS011;11242;50.536;12.688;2022-08-11T14:41:04;2.55;;;2.35;;
22152;SDS011;11242;50.536;12.688;2022-08-11T14:43:49;2.83;;;2.50;;
22152;SDS011;11242;50.536;12.688;2022-08-11T14:46:36;3.80;;;2.40;;
22152;SDS011;11242;50.536;12.688;2022-08-11T14:49:22;7.70;;;2.47;;
22152;SDS011;11242;50.536;12.688;2022-08-11T14:51:48;4.22;;;2.25;;
22152;SDS011;11242;50.536;12.688;2022-08-11T14:54:17;5.38;;;2.53;;
22152;SDS011;11242;50.536;12.688;2022-08-11T14:57:02;4.80;;;2.72;;
22152;SDS011;11242;50.536;12.688;2022-08-11T14:59:28;4.95;;;2.30;;
22152;SDS011;11242;50.536;12.688;2022-08-11T15:01:54;4.30;;;2.13;;
22152;SDS011;11242;50.536;12.688;2022-08-11T15:04:38;3.70;;;2.20;;
22152;SDS011;11242;50.536;12.688;2022-08-11T15:07:04;8.90;;;2.83;;
22152;SDS011;11242;50.536;12.688;2022-08-11T15:09:30;2.30;;;1.90;;
22152;SDS011;11242;50.536;12.688;2022-08-11T15:11:56;6.80;;;2.63;;
22152;SDS011;11242;50.536;12.688;2022-08-11T15:14:32;7.10;;;2.13;;
22152;SDS011;11242;50.536;12.688;2022-08-11T15:17:17;6.72;;;2.92;;
22152;SDS011;11242;50.536;12.688;2022-08-11T15:19:45;2.67;;;2.00;;
22152;SDS011;11242;50.536;12.688;2022-08-11T15:22:30;40.03;;;5.20;;
22152;SDS011;11242;50.536;12.688;2022-08-11T15:25:15;3.55;;;2.25;;
22152;SDS011;11242;50.536;12.688;2022-08-11T15:27:41;15.90;;;4.10;;
22152;SDS011;11242;50.536;12.688;2022-08-11T15:30:29;2.88;;;2.22;;
22152;SDS011;11242;50.536;12.688;2022-08-11T15:33:13;4.15;;;2.30;;
22152;SDS011;11242;50.536;12.688;2022-08-11T15:36:04;6.15;;;2.20;;
22152;SDS011;11242;50.536;12.688;2022-08-11T15:38:57;3.83;;;2.00;;
22152;SDS011;11242;50.536;12.688;2022-08-11T15:41:30;3.95;;;2.20;;
22152;SDS011;11242;50.536;12.688;2022-08-11T15:44:28;3.25;;;2.10;;
22152;SDS011;11242;50.536;12.688;2022-08-11T15:47:14;7.22;;;2.13;;
22152;SDS011;11242;50.536;12.688;2022-08-11T15:49:44;4.78;;;2.17;;
22152;SDS011;11242;50.536;12.688;2022-08-11T15:52:16;3.17;;;2.03;;
22152;SDS011;11242;50.536;12.688;2022-08-11T15:54:43;4.40;;;2.38;;
22152;SDS011;11242;50.536;12.688;2022-08-11T15:57:11;4.10;;;2.08;;
22152;SDS011;11242;50.536;12.688;2022-08-11T16:00:00;9.18;;;2.83;;
22152;SDS011;11242;50.536;12.688;2022-08-11T16:02:48;2.47;;;2.25;;
22152;SDS011;11242;50.536;12.688;2022-08-11T16:05:19;2.13;;;2.03;;
22152;SDS011;11242;50.536;12.688;2022-08-11T16:07:45;6.38;;;2.05;;
22152;SDS011;11242;50.536;12.688;2022-08-11T16:10:14;2.78;;;2.10;;
22152;SDS011;11242;50.536;12.688;2022-08-11T16:13:06;2.13;;;1.90;;
22152;SDS011;11242;50.536;12.688;2022-08-11T16:15:32;3.47;;;2.05;;
22152;SDS011;11242;50.536;12.688;2022-08-11T16:18:20;6.90;;;2.25;;
22152;SDS011;11242;50.536;12.688;2022-08-11T16:20:52;2.10;;;1.90;;
22152;SDS011;11242;50.536;12.688;2022-08-11T16:23:20;3.60;;;1.70;;
22152;SDS011;11242;50.536;12.688;2022-08-11T16:25:50;3.20;;;1.90;;
22152;SDS011;11242;50.536;12.688;2022-08-11T16:28:18;3.08;;;1.80;;
22152;SDS011;11242;50.536;12.688;2022-08-11T16:30:45;2.83;;;1.83;;
22152;SDS011;11242;50.536;12.688;2022-08-11T16:33:12;6.43;;;5.18;;
22152;SDS011;11242;50.536;12.688;2022-08-11T16:35:39;2.25;;;1.65;;
22152;SDS011;11242;50.536;12.688;2022-08-11T16:38:26;5.53;;;2.00;;
22152;SDS011;11242;50.536;12.688;2022-08-11T16:41:06;6.72;;;2.13;;
22152;SDS011;11242;50.536;12.688;2022-08-11T16:43:44;3.83;;;1.88;;
22152;SDS011;11242;50.536;12.688;2022-08-11T16:46:30;1.80;;;1.70;;
22152;SDS011;11242;50.536;12.688;2022-08-11T16:49:16;4.25;;;1.88;;
22152;SDS011;11242;50.536;12.688;2022-08-11T16:52:03;3.97;;;1.77;;
22152;SDS011;11242;50.536;12.688;2022-08-11T16:54:36;26.38;;;20.45;;
22152;SDS011;11242;50.536;12.688;2022-08-11T16:57:03;42.30;;;32.83;;
22152;SDS011;11242;50.536;12.688;2022-08-11T16:59:52;10.07;;;9.07;;
22152;SDS011;11242;50.536;12.688;2022-08-11T17:02:18;21.02;;;14.48;;
22152;SDS011;11242;50.536;12.688;2022-08-11T17:05:10;5.80;;;2.58;;
22152;SDS011;11242;50.536;12.688;2022-08-11T17:08:09;2.67;;;1.63;;
22152;SDS011;11242;50.536;12.688;2022-08-11T17:10:58;13.93;;;10.50;;
22152;SDS011;11242;50.536;12.688;2022-08-11T17:13:46;9.73;;;6.43;;
22152;SDS011;11242;50.536;12.688;2022-08-11T17:16:24;12.93;;;10.88;;
22152;SDS011;11242;50.536;12.688;2022-08-11T17:18:57;15.05;;;12.73;;
22152;SDS011;11242;50.536;12.688;2022-08-11T17:21:26;2.13;;;1.88;;
22152;SDS011;11242;50.536;12.688;2022-08-11T17:24:24;1.90;;;1.70;;
22152;SDS011;11242;50.536;12.688;2022-08-11T17:26:52;2.85;;;1.77;;
22152;SDS011;11242;50.536;12.688;2022-08-11T17:29:31;5.43;;;2.75;;
22152;SDS011;11242;50.536;12.688;2022-08-11T17:32:11;23.65;;;20.92;;
22152;SDS011;11242;50.536;12.688;2022-08-11T17:34:59;2.20;;;1.80;;
22152;SDS011;11242;50.536;12.688;2022-08-11T17:37:48;4.18;;;2.00;;
22152;SDS011;11242;50.536;12.688;2022-08-11T17:40:19;5.85;;;1.70;;
22152;SDS011;11242;50.536;12.688;2022-08-11T17:45:35;3.65;;;1.65;;
22152;SDS011;11242;50.536;12.688;2022-08-11T17:48:25;5.47;;;2.10;;
22152;SDS011;11242;50.536;12.688;2022-08-11T17:50:53;3.70;;;1.88;;
22152;SDS011;11242;50.536;12.688;2022-08-11T17:53:36;4.18;;;1.80;;
22152;SDS011;11242;50.536;12.688;2022-08-11T17:56:23;9.43;;;1.75;;
22152;SDS011;11242;50.536;12.688;2022-08-11T17:59:09;3.55;;;1.73;;
22152;SDS011;11242;50.536;12.688;2022-08-11T18:01:55;1.83;;;1.50;;
22152;SDS011;11242;50.536;12.688;2022-08-11T18:04:43;2.85;;;1.88;;
22152;SDS011;11242;50.536;12.688;2022-08-11T18:07:11;3.30;;;2.10;;
22152;SDS011;11242;50.536;12.688;2022-08-11T18:09:57;2.55;;;1.88;;
22152;SDS011;11242;50.536;12.688;2022-08-11T18:12:43;7.32;;;1.80;;
22152;SDS011;11242;50.536;12.688;2022-08-11T18:15:28;5.28;;;2.10;;
22152;SDS011;11242;50.536;12.688;2022-08-11T18:18:13;2.35;;;2.03;;
22152;SDS011;11242;50.536;12.688;2022-08-11T18:20:57;2.00;;;1.80;;
22152;SDS011;11242;50.536;12.688;2022-08-11T18:23:42;4.65;;;2.63;;
22152;SDS011;11242;50.536;12.688;2022-08-11T18:26:28;4.68;;;2.83;;
22152;SDS011;11242;50.536;12.688;2022-08-11T18:29:12;5.10;;;2.90;;
22152;SDS011;11242;50.536;12.688;2022-08-11T18:31:59;8.18;;;3.42;;
22152;SDS011;11242;50.536;12.688;2022-08-11T18:34:44;5.65;;;3.65;;
22152;SDS011;11242;50.536;12.688;2022-08-11T18:37:32;6.68;;;3.88;;